createdAt,value
2019-04-07T00:02:01.016Z,9.63
2019-04-07T00:04:28.055Z,9.61
2019-04-07T00:06:54.532Z,9.59
2019-04-07T00:09:22.229Z,9.58
2019-04-07T00:11:48.579Z,9.57
2019-04-07T00:14:14.676Z,9.52
2019-04-07T00:16:40.833Z,9.45
2019-04-07T00:19:07.108Z,9.39
2019-04-07T00:21:33.229Z,9.32
2019-04-07T00:24:01.819Z,9.26
2019-04-07T00:26:28.025Z,9.21
2019-04-07T00:28:54.250Z,9.15
2019-04-07T00:31:20.551Z,9.12
2019-04-07T00:33:47.285Z,9.08
2019-04-07T00:36:13.410Z,9.05
2019-04-07T00:38:40.616Z,9.01
2019-04-07T00:41:06.900Z,8.97
2019-04-07T00:43:32.960Z,8.93
2019-04-07T00:45:59.465Z,8.89
2019-04-07T00:48:26.007Z,8.82
2019-04-07T00:50:52.280Z,8.76
2019-04-07T00:53:18.901Z,8.71
2019-04-07T00:55:45.218Z,8.64
2019-04-07T00:58:11.612Z,8.59
2019-04-07T01:00:39.986Z,8.52
2019-04-07T01:03:06.364Z,8.47
2019-04-07T01:05:36.678Z,8.40
2019-04-07T01:08:01.710Z,8.35
2019-04-07T01:10:28.131Z,8.33
2019-04-07T01:12:54.338Z,8.33
2019-04-07T01:15:21.004Z,8.32
2019-04-07T01:17:47.299Z,8.34
2019-04-07T01:20:14.050Z,8.33
2019-04-07T01:22:40.805Z,8.30
2019-04-07T01:25:07.149Z,8.23
2019-04-07T01:27:33.671Z,8.17
2019-04-07T01:30:00.815Z,8.09
2019-04-07T01:32:27.066Z,8.05
2019-04-07T01:34:54.878Z,7.68
2019-04-07T01:37:21.261Z,7.90
2019-04-07T01:39:47.738Z,7.83
2019-04-07T01:42:28.338Z,7.79
2019-04-07T01:45:15.527Z,7.72
2019-04-07T01:48:00.739Z,7.66
2019-04-07T01:50:31.680Z,7.60
2019-04-07T01:53:14.829Z,7.55
2019-04-07T01:55:43.963Z,7.51
2019-04-07T01:58:20.724Z,7.45
2019-04-07T02:00:52.163Z,7.40
2019-04-07T02:03:26.546Z,7.36
2019-04-07T02:05:59.320Z,7.29
2019-04-07T02:08:34.048Z,7.24
2019-04-07T02:11:20.074Z,7.21
2019-04-07T02:13:51.614Z,7.15
2019-04-07T02:16:28.886Z,7.09
2019-04-07T02:19:12.376Z,7.05
2019-04-07T02:21:57.151Z,7.02
2019-04-07T02:24:25.576Z,6.99
2019-04-07T02:26:59.781Z,6.95
2019-04-07T02:29:43.449Z,6.92
2019-04-07T02:32:11.567Z,6.88
2019-04-07T02:34:40.132Z,6.85
2019-04-07T02:37:24.392Z,6.85
2019-04-07T02:39:55.130Z,6.82
2019-04-07T02:42:26.675Z,6.80
2019-04-07T02:45:01.903Z,6.74
2019-04-07T02:47:42.061Z,6.68
2019-04-07T02:50:10.568Z,6.62
2019-04-07T02:52:54.825Z,6.58
2019-04-07T02:55:26.925Z,6.54
2019-04-07T02:57:59.245Z,6.49
2019-04-07T03:00:39.980Z,6.46
2019-04-07T03:03:11.156Z,6.42
2019-04-07T03:05:42.321Z,6.38
2019-04-07T03:08:13.441Z,6.36
2019-04-07T03:10:41.644Z,6.29
2019-04-07T03:13:09.899Z,6.24
2019-04-07T03:15:44.965Z,6.22
2019-04-07T03:18:24.284Z,4.77
2019-04-07T03:21:04.217Z,6.24
2019-04-07T03:23:51.393Z,6.27
2019-04-07T03:26:38.647Z,4.52
2019-04-07T03:29:09.794Z,6.25
2019-04-07T03:31:49.160Z,6.19
2019-04-07T03:34:23.341Z,6.15
2019-04-07T03:37:27.015Z,6.13
2019-04-07T03:39:34.325Z,6.12
2019-04-07T03:42:03.019Z,6.16
2019-04-07T03:44:31.168Z,6.19
2019-04-07T03:47:08.840Z,6.21
2019-04-07T03:49:46.035Z,6.23
2019-04-07T03:52:32.030Z,6.24
2019-04-07T03:55:03.144Z,6.24
2019-04-07T03:57:40.894Z,6.20
2019-04-07T04:00:16.833Z,6.19
2019-04-07T04:02:50.766Z,6.16
2019-04-07T04:05:31.130Z,6.15
2019-04-07T04:08:08.188Z,6.16
2019-04-07T04:10:36.964Z,6.19
2019-04-07T04:13:11.112Z,6.23
2019-04-07T04:15:39.528Z,6.22
2019-04-07T04:18:06.629Z,6.19
2019-04-07T04:20:32.817Z,6.16
2019-04-07T04:22:59.743Z,6.09
2019-04-07T04:25:27.432Z,6.04
2019-04-07T04:27:53.554Z,6.03
2019-04-07T04:30:19.732Z,6.04
2019-04-07T04:32:46.422Z,6.04
2019-04-07T04:35:12.972Z,6.03
2019-04-07T04:37:44.253Z,6.02
2019-04-07T04:40:07.556Z,6.02
2019-04-07T04:42:34.138Z,6.02
2019-04-07T04:45:00.650Z,6.01
2019-04-07T04:47:27.532Z,6.00
2019-04-07T04:49:54.232Z,5.96
2019-04-07T04:52:20.777Z,5.94
2019-04-07T04:54:47.487Z,5.90
2019-04-07T04:57:14.598Z,5.88
2019-04-07T04:59:40.870Z,5.89
2019-04-07T05:02:07.805Z,5.89
2019-04-07T05:04:34.123Z,5.90
2019-04-07T05:07:01.437Z,5.89
2019-04-07T05:09:41.840Z,5.88
2019-04-07T05:11:58.869Z,5.87
2019-04-07T05:14:31.311Z,5.86
2019-04-07T05:16:57.472Z,5.84
2019-04-07T05:19:23.767Z,5.85
2019-04-07T05:21:50.493Z,5.88
2019-04-07T05:24:18.229Z,5.89
2019-04-07T05:26:44.531Z,5.90
2019-04-07T05:29:10.987Z,5.90
2019-04-07T05:31:38.518Z,5.90
2019-04-07T05:34:05.524Z,4.39
2019-04-07T05:36:32.530Z,5.92
2019-04-07T05:38:58.770Z,4.54
2019-04-07T05:41:25.026Z,4.45
2019-04-07T05:43:51.526Z,5.95
2019-04-07T05:46:17.790Z,5.97
2019-04-07T05:48:44.610Z,5.98
2019-04-07T05:51:10.709Z,5.73
2019-04-07T05:53:36.882Z,6.08
2019-04-07T05:56:03.507Z,6.15
2019-04-07T05:58:29.890Z,6.21
2019-04-07T06:00:56.945Z,6.26
2019-04-07T06:03:23.556Z,6.27
2019-04-07T06:05:51.235Z,6.33
2019-04-07T06:08:27.919Z,6.37
2019-04-07T06:10:46.324Z,6.42
2019-04-07T06:13:14.606Z,6.44
2019-04-07T06:15:40.938Z,6.48
2019-04-07T06:18:07.375Z,6.53
2019-04-07T06:20:33.555Z,6.60
2019-04-07T06:23:00.664Z,6.65
2019-04-07T06:25:27.425Z,6.73
2019-04-07T06:27:54.289Z,6.79
2019-04-07T06:30:22.067Z,6.85
2019-04-07T06:32:48.584Z,6.94
2019-04-07T06:35:15.912Z,7.05
2019-04-07T06:37:42.866Z,7.13
2019-04-07T06:40:09.992Z,7.16
2019-04-07T06:42:36.687Z,7.20
2019-04-07T06:47:49.785Z,7.35
2019-04-07T06:50:20.748Z,7.38
2019-04-07T06:53:10.573Z,7.48
2019-04-07T06:55:52.276Z,7.58
2019-04-07T06:58:21.705Z,7.72
2019-04-07T07:01:02.028Z,7.92
2019-04-07T07:03:29.151Z,8.11
2019-04-07T07:06:10.114Z,8.33
2019-04-07T07:08:55.670Z,8.55
2019-04-07T07:11:43.059Z,8.70
2019-04-07T07:14:31.429Z,8.91
2019-04-07T07:16:52.376Z,9.19
2019-04-07T07:19:32.806Z,9.52
2019-04-07T07:22:14.807Z,9.91
2019-04-07T07:24:38.313Z,10.35
2019-04-07T07:27:07.101Z,10.73
2019-04-07T07:29:33.812Z,11.01
2019-04-07T07:32:03.762Z,11.21
2019-04-07T07:34:29.534Z,11.38
2019-04-07T07:36:57.785Z,11.46
2019-04-07T07:39:25.048Z,11.66
2019-04-07T07:41:52.181Z,11.81
2019-04-07T07:44:20.067Z,11.90
2019-04-07T07:46:49.130Z,12.00
2019-04-07T07:49:14.857Z,12.23
2019-04-07T07:51:45.066Z,12.44
2019-04-07T07:54:09.939Z,12.60
2019-04-07T07:56:36.747Z,10.83
2019-04-07T07:59:03.660Z,12.87
2019-04-07T08:01:31.019Z,13.06
2019-04-07T08:03:57.665Z,13.23
2019-04-07T08:06:24.041Z,13.29
2019-04-07T08:08:50.306Z,13.37
2019-04-07T08:11:17.743Z,13.61
2019-04-07T08:13:45.946Z,13.85
2019-04-07T08:16:14.110Z,14.02
2019-04-07T08:18:44.636Z,14.19
2019-04-07T08:21:12.235Z,14.25
2019-04-07T08:23:39.024Z,14.43
2019-04-07T08:26:08.452Z,14.57
2019-04-07T08:28:35.886Z,14.55
2019-04-07T08:31:04.389Z,14.63
2019-04-07T08:33:30.916Z,14.77
2019-04-07T08:35:57.963Z,14.77
2019-04-07T08:38:26.731Z,15.27
2019-04-07T08:40:54.288Z,15.43
2019-04-07T08:43:23.396Z,15.63
2019-04-07T08:45:51.487Z,15.53
2019-04-07T08:48:19.326Z,15.76
2019-04-07T08:50:50.332Z,16.13
2019-04-07T08:53:17.009Z,16.47
2019-04-07T08:55:44.759Z,16.65
2019-04-07T08:58:24.443Z,16.86
2019-04-07T09:00:42.689Z,17.14
2019-04-07T09:03:14.721Z,17.25
2019-04-07T09:05:39.919Z,17.42
2019-04-07T09:08:07.401Z,17.69
2019-04-07T09:10:39.555Z,18.00
2019-04-07T09:13:09.080Z,18.34
2019-04-07T09:15:54.472Z,18.47
2019-04-07T09:18:51.641Z,18.63
2019-04-07T09:21:19.923Z,17.97
2019-04-07T09:24:13.972Z,18.85
2019-04-07T09:26:49.934Z,17.21
2019-04-07T09:29:18.445Z,18.83
2019-04-07T09:31:57.603Z,18.83
2019-04-07T09:34:43.494Z,18.73
2019-04-07T09:37:13.397Z,18.65
2019-04-07T09:39:56.258Z,18.78
2019-04-07T09:42:20.184Z,18.87
2019-04-07T09:44:49.515Z,18.91
2019-04-07T09:47:20.526Z,19.01
2019-04-07T09:49:50.171Z,19.18
2019-04-07T09:52:18.947Z,19.41
2019-04-07T09:54:53.794Z,19.59
2019-04-07T09:57:20.160Z,19.71
2019-04-07T10:00:07.281Z,19.79
2019-04-07T10:02:35.761Z,19.81
2019-04-07T10:05:11.376Z,19.88
2019-04-07T10:07:58.008Z,19.87
2019-04-07T10:10:32.327Z,19.94
2019-04-07T10:13:06.674Z,20.09
2019-04-07T10:15:45.781Z,20.16
2019-04-07T10:18:22.932Z,20.24
2019-04-07T10:20:59.912Z,20.40
2019-04-07T10:23:48.704Z,19.41
2019-04-07T10:26:16.753Z,20.54
2019-04-07T10:28:54.416Z,19.56
2019-04-07T10:31:28.540Z,20.78
2019-04-07T10:34:03.402Z,20.86
2019-04-07T10:36:31.895Z,20.86
2019-04-07T10:39:08.967Z,20.93
2019-04-07T10:41:38.335Z,21.05
2019-04-07T10:44:09.640Z,20.07
2019-04-07T10:46:41.644Z,21.24
2019-04-07T10:49:25.185Z,21.29
2019-04-07T10:51:57.014Z,21.28
2019-04-07T10:54:38.110Z,20.44
2019-04-07T10:57:16.825Z,20.90
2019-04-07T11:00:01.422Z,20.94
2019-04-07T11:02:29.887Z,21.02
2019-04-07T11:05:07.083Z,21.08
2019-04-07T11:07:55.871Z,21.10
2019-04-07T11:10:36.123Z,21.14
2019-04-07T11:13:17.045Z,21.15
2019-04-07T11:15:55.195Z,21.45
2019-04-07T11:18:29.234Z,21.72
2019-04-07T11:21:00.984Z,21.99
2019-04-07T11:23:41.480Z,21.91
2019-04-07T11:26:18.946Z,21.69
2019-04-07T11:28:47.036Z,21.64
2019-04-07T11:31:15.729Z,21.68
2019-04-07T11:33:47.325Z,21.65
2019-04-07T11:36:25.456Z,20.67
2019-04-07T11:39:03.121Z,21.66
2019-04-07T11:41:48.297Z,21.67
2019-04-07T11:44:29.236Z,21.70
2019-04-07T11:47:02.114Z,21.89
2019-04-07T11:49:33.140Z,22.05
2019-04-07T11:52:18.030Z,22.27
2019-04-07T11:55:02.605Z,22.31
2019-04-07T11:57:35.382Z,22.21
2019-04-07T12:00:25.080Z,22.12
2019-04-07T12:02:56.184Z,22.08
2019-04-07T12:05:36.653Z,22.02
2019-04-07T12:08:21.655Z,21.80
2019-04-07T12:10:58.675Z,21.94
2019-04-07T12:13:25.475Z,21.94
2019-04-07T12:16:03.628Z,22.05
2019-04-07T12:18:35.273Z,22.23
2019-04-07T12:21:19.423Z,22.41
2019-04-07T12:24:11.350Z,22.55
2019-04-07T12:26:43.715Z,22.63
2019-04-07T12:29:28.767Z,22.70
2019-04-07T12:32:13.865Z,22.61
2019-04-07T12:34:47.741Z,22.60
2019-04-07T12:37:15.642Z,22.60
2019-04-07T12:39:47.292Z,22.41
2019-04-07T12:42:24.514Z,22.34
2019-04-07T12:45:07.934Z,22.33
2019-04-07T12:47:39.781Z,22.34
2019-04-07T12:50:21.615Z,22.30
2019-04-07T12:53:02.377Z,22.29
2019-04-07T12:55:32.912Z,21.94
2019-04-07T12:58:09.622Z,21.40
2019-04-07T13:01:00.018Z,21.34
2019-04-07T13:03:37.457Z,21.50
2019-04-07T13:06:22.289Z,21.64
2019-04-07T13:08:53.663Z,21.85
2019-04-07T13:11:33.980Z,22.04
2019-04-07T13:14:10.015Z,22.21
2019-04-07T13:16:50.360Z,20.99
2019-04-07T13:19:18.806Z,21.92
2019-04-07T13:21:48.049Z,22.02
2019-04-07T13:24:35.601Z,22.28
2019-04-07T13:27:06.343Z,22.50
2019-04-07T13:29:34.843Z,22.65
2019-04-07T13:32:15.238Z,22.63
2019-04-07T13:34:58.250Z,22.38
2019-04-07T13:37:26.767Z,22.00
2019-04-07T13:39:57.807Z,21.73
2019-04-07T13:42:37.954Z,21.53
2019-04-07T13:45:12.035Z,21.46
2019-04-07T13:47:49.016Z,21.35
2019-04-07T13:50:23.545Z,20.11
2019-04-07T13:52:55.013Z,21.15
2019-04-07T13:55:41.745Z,21.20
2019-04-07T13:58:17.256Z,20.85
2019-04-07T14:01:02.105Z,20.62
2019-04-07T14:03:47.005Z,20.33
2019-04-07T14:06:22.135Z,20.25
2019-04-07T14:09:02.540Z,20.24
2019-04-07T14:12:01.528Z,20.34
2019-04-07T14:14:21.001Z,20.49
2019-04-07T14:17:07.324Z,20.53
2019-04-07T14:19:42.242Z,20.47
2019-04-07T14:22:14.434Z,19.86
2019-04-07T14:24:42.611Z,20.40
2019-04-07T14:27:10.664Z,20.36
2019-04-07T14:29:41.734Z,20.37
2019-04-07T14:32:10.236Z,20.43
2019-04-07T14:34:39.142Z,20.51
2019-04-07T14:37:23.909Z,20.41
2019-04-07T14:39:52.374Z,20.34
2019-04-07T14:42:20.559Z,20.16
2019-04-07T14:44:55.562Z,20.08
2019-04-07T14:47:36.013Z,20.00
2019-04-07T14:50:23.204Z,19.89
2019-04-07T14:52:54.768Z,19.83
2019-04-07T14:55:23.747Z,19.80
2019-04-07T14:57:54.629Z,19.76
2019-04-07T15:00:38.639Z,19.76
2019-04-07T15:03:05.182Z,19.69
2019-04-07T15:05:34.141Z,19.69
2019-04-07T15:08:11.783Z,19.66
2019-04-07T15:10:46.284Z,19.64
2019-04-07T15:13:14.845Z,19.66
2019-04-07T15:15:41.819Z,19.60
2019-04-07T15:18:08.179Z,19.53
2019-04-07T15:20:34.992Z,19.42
2019-04-07T15:23:01.892Z,19.34
2019-04-07T15:25:29.701Z,19.28
2019-04-07T15:27:58.887Z,19.16
2019-04-07T15:30:25.331Z,19.13
2019-04-07T15:32:51.697Z,19.08
2019-04-07T15:35:18.228Z,19.11
2019-04-07T15:37:44.627Z,19.15
2019-04-07T15:40:12.017Z,19.17
2019-04-07T15:42:43.428Z,19.21
2019-04-07T15:45:10.591Z,19.24
2019-04-07T15:47:36.012Z,19.18
2019-04-07T15:50:05.109Z,19.15
2019-04-07T15:52:32.036Z,19.09
2019-04-07T15:54:58.483Z,19.04
2019-04-07T15:57:25.821Z,19.02
2019-04-07T15:59:52.389Z,18.96
2019-04-07T16:02:19.294Z,18.90
2019-04-07T16:04:45.591Z,18.90
2019-04-07T16:07:12.308Z,18.81
2019-04-07T16:09:49.262Z,18.79
2019-04-07T16:12:06.646Z,18.77
2019-04-07T16:14:32.841Z,18.77
2019-04-07T16:17:02.803Z,18.76
2019-04-07T16:19:37.685Z,18.76
2019-04-07T16:21:55.833Z,18.74
2019-04-07T16:24:22.989Z,18.74
2019-04-07T16:26:50.107Z,18.75
2019-04-07T16:29:18.035Z,18.69
2019-04-07T16:31:44.920Z,18.58
2019-04-07T16:34:11.434Z,18.44
2019-04-07T16:36:38.182Z,18.40
2019-04-07T16:39:09.325Z,18.31
2019-04-07T16:41:35.774Z,18.28
2019-04-07T16:44:05.469Z,18.28
2019-04-07T16:46:30.497Z,18.22
2019-04-07T16:48:57.758Z,18.18
2019-04-07T16:51:28.424Z,18.16
2019-04-07T16:53:53.292Z,18.14
2019-04-07T16:56:21.967Z,18.07
2019-04-07T16:58:49.000Z,18.04
2019-04-07T17:01:16.121Z,18.00
2019-04-07T17:03:43.107Z,17.97
2019-04-07T17:06:11.979Z,17.93
2019-04-07T17:08:38.008Z,17.88
2019-04-07T17:11:07.382Z,17.83
2019-04-07T17:13:38.616Z,17.81
2019-04-07T17:16:00.983Z,17.78
2019-04-07T17:18:41.107Z,17.74
2019-04-07T17:21:12.793Z,17.67
2019-04-07T17:23:39.706Z,17.64
2019-04-07T17:26:06.902Z,17.60
2019-04-07T17:28:35.836Z,17.56
2019-04-07T17:31:02.743Z,17.54
2019-04-07T17:33:29.575Z,16.33
2019-04-07T17:35:55.888Z,17.46
2019-04-07T17:38:23.959Z,17.40
2019-04-07T17:40:51.829Z,17.36
2019-04-07T17:43:31.543Z,17.32
2019-04-07T17:45:55.972Z,17.28
2019-04-07T17:48:24.434Z,17.21
2019-04-07T17:51:07.312Z,17.17
2019-04-07T17:53:38.235Z,17.13
2019-04-07T17:56:16.299Z,17.08
2019-04-07T17:58:54.003Z,17.02
2019-04-07T18:01:24.560Z,16.97
2019-04-07T18:03:55.218Z,16.91
2019-04-07T18:06:32.313Z,16.85
2019-04-07T18:09:20.261Z,16.80
2019-04-07T18:11:47.680Z,16.75
2019-04-07T18:14:15.863Z,16.68
2019-04-07T18:17:02.458Z,15.40
2019-04-07T18:19:34.761Z,16.60
2019-04-07T18:22:06.256Z,16.55
2019-04-07T18:24:37.777Z,16.51
2019-04-07T18:27:12.564Z,16.46
2019-04-07T18:29:41.737Z,16.41
2019-04-07T18:32:11.016Z,16.39
2019-04-07T18:34:51.738Z,16.36
2019-04-07T18:37:40.055Z,16.33
2019-04-07T18:40:10.999Z,16.32
2019-04-07T18:42:55.693Z,16.29
2019-04-07T18:45:33.343Z,16.24
2019-04-07T18:48:08.027Z,16.20
2019-04-07T18:50:40.021Z,16.16
2019-04-07T18:53:11.237Z,16.13
2019-04-07T18:55:48.491Z,16.10
2019-04-07T18:58:22.694Z,16.07
2019-04-07T19:01:09.383Z,16.04
2019-04-07T19:03:51.952Z,15.99
2019-04-07T19:06:23.734Z,15.96
2019-04-07T19:09:08.155Z,15.94
2019-04-07T19:12:02.824Z,15.92
2019-04-07T19:14:41.216Z,15.88
2019-04-07T19:17:05.044Z,15.85
2019-04-07T19:19:50.619Z,15.81
2019-04-07T19:22:21.151Z,15.77
2019-04-07T19:25:05.121Z,15.71
2019-04-07T19:27:48.257Z,15.68
2019-04-07T19:30:16.503Z,15.66
2019-04-07T19:32:57.834Z,15.63
2019-04-07T19:35:39.851Z,15.60
2019-04-07T19:38:12.224Z,15.58
2019-04-07T19:40:53.131Z,15.56
2019-04-07T19:43:31.937Z,15.54
2019-04-07T19:46:15.836Z,15.51
2019-04-07T19:49:02.919Z,15.47
2019-04-07T19:51:49.446Z,15.43
2019-04-07T19:54:18.848Z,15.40
2019-04-07T19:56:47.915Z,15.36
2019-04-07T19:59:16.122Z,15.35
2019-04-07T20:02:03.581Z,15.34
2019-04-07T20:04:50.161Z,14.05
2019-04-07T20:07:20.241Z,15.02
2019-04-07T20:09:48.893Z,15.24
2019-04-07T20:12:38.230Z,15.17
2019-04-07T20:15:24.161Z,15.10
2019-04-07T20:17:54.968Z,15.03
2019-04-07T20:20:28.226Z,14.87
2019-04-07T20:23:02.637Z,14.82
2019-04-07T20:25:47.899Z,14.72
2019-04-07T20:28:25.231Z,14.61
2019-04-07T20:31:03.956Z,14.49
2019-04-07T20:33:49.284Z,14.37
2019-04-07T20:36:23.837Z,14.26
2019-04-07T20:38:58.526Z,14.14
2019-04-07T20:41:38.759Z,14.05
2019-04-07T20:44:14.845Z,13.95
2019-04-07T20:47:00.743Z,13.88
2019-04-07T20:49:34.270Z,13.81
2019-04-07T20:52:03.282Z,13.75
2019-04-07T20:54:34.503Z,12.38
2019-04-07T20:57:05.019Z,13.66
2019-04-07T20:59:34.530Z,13.62
2019-04-07T21:02:11.479Z,13.57
2019-04-07T21:04:49.919Z,13.56
2019-04-07T21:07:29.855Z,13.55
2019-04-07T21:10:16.714Z,13.53
2019-04-07T21:12:56.962Z,13.54
2019-04-07T21:15:30.395Z,13.55
2019-04-07T21:18:01.994Z,13.57
2019-04-07T21:20:37.235Z,13.57
2019-04-07T21:23:09.281Z,13.58
2019-04-07T21:25:55.844Z,13.61
2019-04-07T21:28:30.949Z,13.63
2019-04-07T21:31:17.859Z,13.63
2019-04-07T21:33:47.709Z,13.65
2019-04-07T21:36:32.872Z,12.39
2019-04-07T21:39:01.775Z,13.69
2019-04-07T21:41:45.169Z,13.71
2019-04-07T21:44:15.975Z,13.71
2019-04-07T21:46:46.357Z,13.69
2019-04-07T21:49:17.557Z,13.66
2019-04-07T21:51:51.453Z,13.65
2019-04-07T21:54:19.717Z,13.64
2019-04-07T21:57:04.463Z,13.63
2019-04-07T21:59:35.701Z,13.64
2019-04-07T22:02:19.517Z,13.62
2019-04-07T22:04:54.548Z,11.68
2019-04-07T22:07:37.983Z,13.63
2019-04-07T22:10:07.938Z,13.63
2019-04-07T22:12:34.293Z,13.63
2019-04-07T22:15:00.669Z,13.63
2019-04-07T22:17:27.527Z,13.62
2019-04-07T22:19:54.368Z,13.60
2019-04-07T22:22:24.099Z,13.58
2019-04-07T22:24:50.677Z,13.58
2019-04-07T22:27:21.268Z,13.57
2019-04-07T22:29:45.729Z,13.55
2019-04-07T22:32:14.842Z,13.54
2019-04-07T22:34:40.428Z,13.51
2019-04-07T22:37:06.802Z,13.49
2019-04-07T22:39:33.361Z,13.48
2019-04-07T22:42:00.161Z,13.48
2019-04-07T22:44:26.407Z,13.47
2019-04-07T22:46:52.964Z,13.46
2019-04-07T22:49:19.825Z,13.45
2019-04-07T22:51:47.559Z,13.42
2019-04-07T22:54:14.656Z,13.38
2019-04-07T22:56:40.938Z,13.35
2019-04-07T22:59:09.828Z,13.31
2019-04-07T23:01:35.488Z,13.29
2019-04-07T23:04:02.086Z,13.23
2019-04-07T23:06:28.736Z,13.21
2019-04-07T23:08:55.409Z,13.18
2019-04-07T23:11:22.512Z,13.14
2019-04-07T23:13:49.587Z,13.10
2019-04-07T23:16:17.476Z,13.02
2019-04-07T23:18:44.482Z,12.96
2019-04-07T23:21:11.673Z,12.89
2019-04-07T23:23:38.219Z,12.81
2019-04-07T23:26:05.473Z,12.75
2019-04-07T23:28:32.685Z,12.71
2019-04-07T23:30:59.194Z,11.39
2019-04-07T23:33:25.615Z,12.68
2019-04-07T23:35:53.300Z,12.66
2019-04-07T23:38:19.832Z,12.63
2019-04-07T23:40:46.185Z,11.21
2019-04-07T23:43:13.193Z,12.61
2019-04-07T23:49:11.969Z,12.63
2019-04-07T23:51:38.174Z,11.18
2019-04-07T23:54:11.341Z,12.62
2019-04-07T23:56:39.992Z,12.59
2019-04-07T23:59:06.338Z,12.59
